Las Vegas, Nevada
Current Conditions -  °F | °C
As of 7:56 AM on Thursday 30 Oct 2014 (Local Time) from KLAS Reporting Station
Scattered Clouds Scattered Clouds  
Wind Chill: 61°   Ceiling: Unl
Heat Index: 61°   Visibility: 10mi
Dew Point: 22°   Wind: 9mph
Humidity: 22%   Direction: 200°SSW
Pressure: 30.07"   Gusts: NA
Location:  36.17°N, 115.13°W
Report Text: KLAS 301456Z 20008KT 10SM SCT250 16/M06 A3007 RMK AO2 SLP168 T01611056 53010
Loading
Personal Weather Stations






























Interactive Weather Map
Tropical Storm Tracking
New forecast layout! Learn more

10-Day Weather Forecast

Advertisements
Track Severe Weather on mobile